MZ-0040 weather

Catandica Airport
Catandica, Manica Province, Mozambique

Public forecast

Using degrees Celsius for public forecast. Weather courtesy of forecast.io.

METAR (pilot weather report)

Closest report is Chimoio Airport, 62.3 nm (115.3 km) SSE. Retrieved 2019/05/25 06:00 UTC (42 minutes ago):

FQCH 250600Z /////KT 9999 SCT015 17/17 Q1026

TAF (pilot weather forecast)

Closest forecast is Chimoio Airport, 62.3 nm (115.3 km) SSE. Retrieved 2019/05/25 06:00 UTC (42 minutes ago):

TAF FQCH 250400Z 2506/2606 17010KT 9999 SCT015 BKN020 TX20/2513Z TN13/2603Z BECMG 2512/2514 VRB03KT BECMG 2518/2520 09010KT